sensor_id;sensor_type;location;lat;lon;timestamp;pressure;altitude;pressure_sealevel;temperature;humidity
64628;BME280;68467;50.960;0.314;2024-03-02T00:00:40;97525.70;;;2.98;100.00
64628;BME280;68467;50.960;0.314;2024-03-02T00:03:07;97526.39;;;3.37;100.00
64628;BME280;68467;50.960;0.314;2024-03-02T00:05:34;97534.70;;;2.95;100.00
64628;BME280;68467;50.960;0.314;2024-03-02T00:08:05;97523.14;;;2.94;100.00
64628;BME280;68467;50.960;0.314;2024-03-02T00:10:37;97524.29;;;3.26;100.00
64628;BME280;68467;50.960;0.314;2024-03-02T00:13:04;97521.82;;;2.78;100.00
64628;BME280;68467;50.960;0.314;2024-03-02T00:15:51;97521.98;;;3.24;100.00
64628;BME280;68467;50.960;0.314;2024-03-02T00:18:21;97511.14;;;3.02;100.00
64628;BME280;68467;50.960;0.314;2024-03-02T00:20:53;97520.51;;;3.22;100.00
64628;BME280;68467;50.960;0.314;2024-03-02T00:23:21;97517.76;;;2.75;100.00
64628;BME280;68467;50.960;0.314;2024-03-02T00:25:50;97515.54;;;2.92;100.00
64628;BME280;68467;50.960;0.314;2024-03-02T00:28:19;97520.28;;;3.09;100.00
64628;BME280;68467;50.960;0.314;2024-03-02T00:30:56;97528.56;;;3.39;100.00
64628;BME280;68467;50.960;0.314;2024-03-02T00:33:26;97522.10;;;3.46;100.00
64628;BME280;68467;50.960;0.314;2024-03-02T00:35:54;97512.24;;;3.26;100.00
64628;BME280;68467;50.960;0.314;2024-03-02T00:38:21;97521.17;;;3.49;100.00
64628;BME280;68467;50.960;0.314;2024-03-02T00:40:48;97516.99;;;3.33;100.00
64628;BME280;68467;50.960;0.314;2024-03-02T00:43:41;97520.35;;;3.56;100.00
64628;BME280;68467;50.960;0.314;2024-03-02T00:46:08;97515.54;;;3.29;100.00
64628;BME280;68467;50.960;0.314;2024-03-02T00:48:35;97509.79;;;3.42;100.00
64628;BME280;68467;50.960;0.314;2024-03-02T00:51:03;97513.36;;;6.23;100.00
64628;BME280;68467;50.960;0.314;2024-03-02T00:53:31;97485.02;;;6.20;100.00
64628;BME280;68467;50.960;0.314;2024-03-02T00:55:58;97497.01;;;8.61;100.00
64628;BME280;68467;50.960;0.314;2024-03-02T00:58:25;97492.94;;;6.68;100.00
64628;BME280;68467;50.960;0.314;2024-03-02T01:00:53;97499.51;;;3.39;100.00
64628;BME280;68467;50.960;0.314;2024-03-02T01:03:20;97500.71;;;3.52;100.00
64628;BME280;68467;50.960;0.314;2024-03-02T01:05:47;97508.98;;;3.20;100.00
64628;BME280;68467;50.960;0.314;2024-03-02T01:08:15;97506.64;;;2.92;100.00
64628;BME280;68467;50.960;0.314;2024-03-02T01:10:42;97512.61;;;3.47;100.00
64628;BME280;68467;50.960;0.314;2024-03-02T01:13:09;97503.47;;;3.53;100.00
64628;BME280;68467;50.960;0.314;2024-03-02T01:15:36;97495.61;;;2.88;100.00
64628;BME280;68467;50.960;0.314;2024-03-02T01:18:04;97504.10;;;3.30;100.00
64628;BME280;68467;50.960;0.314;2024-03-02T01:20:32;97510.06;;;3.12;100.00
64628;BME280;68467;50.960;0.314;2024-03-02T01:22:59;97507.07;;;3.32;100.00
64628;BME280;68467;50.960;0.314;2024-03-02T01:25:26;97507.66;;;3.58;100.00
64628;BME280;68467;50.960;0.314;2024-03-02T01:27:53;97495.06;;;3.20;100.00
64628;BME280;68467;50.960;0.314;2024-03-02T01:30:20;97513.64;;;3.25;100.00
64628;BME280;68467;50.960;0.314;2024-03-02T01:32:48;97500.43;;;3.07;100.00
64628;BME280;68467;50.960;0.314;2024-03-02T01:35:15;97507.70;;;3.59;100.00
64628;BME280;68467;50.960;0.314;2024-03-02T01:37:42;97501.40;;;3.47;100.00
64628;BME280;68467;50.960;0.314;2024-03-02T01:40:10;97497.51;;;3.32;100.00
64628;BME280;68467;50.960;0.314;2024-03-02T01:42:39;97498.28;;;2.98;100.00
64628;BME280;68467;50.960;0.314;2024-03-02T01:45:08;97494.88;;;3.18;100.00
64628;BME280;68467;50.960;0.314;2024-03-02T01:47:35;97488.23;;;3.68;100.00
64628;BME280;68467;50.960;0.314;2024-03-02T01:50:03;97492.38;;;3.03;100.00
64628;BME280;68467;50.960;0.314;2024-03-02T01:52:30;97482.31;;;2.89;100.00
64628;BME280;68467;50.960;0.314;2024-03-02T01:54:57;97482.40;;;2.93;100.00
64628;BME280;68467;50.960;0.314;2024-03-02T01:57:24;97493.89;;;3.36;100.00
64628;BME280;68467;50.960;0.314;2024-03-02T01:59:51;97500.21;;;3.34;100.00
64628;BME280;68467;50.960;0.314;2024-03-02T02:02:18;97499.05;;;3.19;100.00
64628;BME280;68467;50.960;0.314;2024-03-02T02:04:46;97501.92;;;3.32;100.00
64628;BME280;68467;50.960;0.314;2024-03-02T02:07:13;97486.44;;;2.98;100.00
64628;BME280;68467;50.960;0.314;2024-03-02T02:09:41;97509.20;;;3.17;100.00
64628;BME280;68467;50.960;0.314;2024-03-02T02:12:09;97501.90;;;3.31;100.00
64628;BME280;68467;50.960;0.314;2024-03-02T02:14:37;97498.47;;;3.47;100.00
64628;BME280;68467;50.960;0.314;2024-03-02T02:17:04;97491.46;;;3.31;100.00
64628;BME280;68467;50.960;0.314;2024-03-02T02:19:31;97494.59;;;3.20;100.00
64628;BME280;68467;50.960;0.314;2024-03-02T02:22:00;97488.64;;;3.26;100.00
64628;BME280;68467;50.960;0.314;2024-03-02T02:24:26;97491.31;;;3.24;100.00
64628;BME280;68467;50.960;0.314;2024-03-02T02:26:54;97483.51;;;3.33;100.00
64628;BME280;68467;50.960;0.314;2024-03-02T02:29:21;97490.75;;;3.67;100.00
64628;BME280;68467;50.960;0.314;2024-03-02T02:31:48;97482.52;;;3.28;100.00
64628;BME280;68467;50.960;0.314;2024-03-02T02:34:15;97448.37;;;3.17;100.00
64628;BME280;68467;50.960;0.314;2024-03-02T02:36:42;97476.38;;;3.17;100.00
64628;BME280;68467;50.960;0.314;2024-03-02T02:39:13;97470.39;;;3.34;100.00
64628;BME280;68467;50.960;0.314;2024-03-02T02:41:41;97474.03;;;3.42;100.00
64628;BME280;68467;50.960;0.314;2024-03-02T02:44:08;97455.43;;;3.43;100.00
64628;BME280;68467;50.960;0.314;2024-03-02T02:46:36;97469.83;;;3.52;100.00
64628;BME280;68467;50.960;0.314;2024-03-02T02:49:04;97461.84;;;3.58;100.00
64628;BME280;68467;50.960;0.314;2024-03-02T02:51:31;97457.33;;;3.39;100.00
64628;BME280;68467;50.960;0.314;2024-03-02T02:53:58;97451.66;;;3.45;100.00
64628;BME280;68467;50.960;0.314;2024-03-02T02:56:25;97467.02;;;3.51;100.00
64628;BME280;68467;50.960;0.314;2024-03-02T02:58:52;97450.30;;;3.47;100.00
64628;BME280;68467;50.960;0.314;2024-03-02T03:01:20;97454.69;;;3.52;100.00
64628;BME280;68467;50.960;0.314;2024-03-02T03:03:47;97443.23;;;3.34;100.00
64628;BME280;68467;50.960;0.314;2024-03-02T03:06:14;97439.93;;;3.34;100.00
64628;BME280;68467;50.960;0.314;2024-03-02T03:08:41;97443.89;;;3.51;100.00
64628;BME280;68467;50.960;0.314;2024-03-02T03:11:09;97434.91;;;3.48;100.00
64628;BME280;68467;50.960;0.314;2024-03-02T03:13:36;97441.92;;;3.23;100.00
64628;BME280;68467;50.960;0.314;2024-03-02T03:16:04;97440.86;;;3.47;100.00
64628;BME280;68467;50.960;0.314;2024-03-02T03:18:31;97442.21;;;3.32;100.00
64628;BME280;68467;50.960;0.314;2024-03-02T03:20:58;97428.24;;;3.20;100.00
64628;BME280;68467;50.960;0.314;2024-03-02T03:23:26;97439.57;;;3.40;100.00
64628;BME280;68467;50.960;0.314;2024-03-02T03:25:53;97430.49;;;3.16;100.00
64628;BME280;68467;50.960;0.314;2024-03-02T03:28:21;97419.51;;;3.03;100.00
64628;BME280;68467;50.960;0.314;2024-03-02T03:30:48;97432.87;;;3.62;100.00
64628;BME280;68467;50.960;0.314;2024-03-02T03:33:15;97423.12;;;3.31;100.00
64628;BME280;68467;50.960;0.314;2024-03-02T03:35:42;97423.26;;;3.23;100.00
64628;BME280;68467;50.960;0.314;2024-03-02T03:38:09;97423.22;;;3.47;100.00
64628;BME280;68467;50.960;0.314;2024-03-02T03:40:36;97424.20;;;3.49;100.00
64628;BME280;68467;50.960;0.314;2024-03-02T03:43:04;97423.41;;;3.14;100.00
64628;BME280;68467;50.960;0.314;2024-03-02T03:45:31;97414.26;;;3.26;100.00
64628;BME280;68467;50.960;0.314;2024-03-02T03:47:58;97408.28;;;3.63;100.00
64628;BME280;68467;50.960;0.314;2024-03-02T03:50:31;97405.24;;;3.58;100.00
64628;BME280;68467;50.960;0.314;2024-03-02T03:52:58;97403.27;;;3.58;100.00
64628;BME280;68467;50.960;0.314;2024-03-02T03:55:26;97406.13;;;3.60;100.00
64628;BME280;68467;50.960;0.314;2024-03-02T03:57:53;97403.40;;;3.98;100.00
64628;BME280;68467;50.960;0.314;2024-03-02T04:00:20;97397.30;;;3.73;100.00
64628;BME280;68467;50.960;0.314;2024-03-02T04:02:47;97393.98;;;3.49;100.00
64628;BME280;68467;50.960;0.314;2024-03-02T04:05:15;97403.09;;;3.40;100.00
64628;BME280;68467;50.960;0.314;2024-03-02T04:07:42;97401.88;;;3.51;100.00
64628;BME280;68467;50.960;0.314;2024-03-02T04:10:10;97401.68;;;3.73;100.00
64628;BME280;68467;50.960;0.314;2024-03-02T04:12:39;97391.84;;;3.11;100.00
64628;BME280;68467;50.960;0.314;2024-03-02T04:15:07;97392.70;;;2.84;100.00
64628;BME280;68467;50.960;0.314;2024-03-02T04:17:34;97384.51;;;3.04;100.00
64628;BME280;68467;50.960;0.314;2024-03-02T04:20:01;97396.91;;;3.11;100.00
64628;BME280;68467;50.960;0.314;2024-03-02T04:22:29;97397.84;;;3.15;100.00
64628;BME280;68467;50.960;0.314;2024-03-02T04:24:55;97393.81;;;3.00;100.00
64628;BME280;68467;50.960;0.314;2024-03-02T04:27:22;97395.08;;;2.66;100.00
64628;BME280;68467;50.960;0.314;2024-03-02T04:29:50;97395.91;;;3.19;100.00
64628;BME280;68467;50.960;0.314;2024-03-02T04:32:17;97392.22;;;2.92;100.00
64628;BME280;68467;50.960;0.314;2024-03-02T04:34:44;97406.41;;;3.00;100.00
64628;BME280;68467;50.960;0.314;2024-03-02T04:37:11;97392.88;;;3.08;100.00
64628;BME280;68467;50.960;0.314;2024-03-02T04:39:40;97380.41;;;3.39;100.00
64628;BME280;68467;50.960;0.314;2024-03-02T04:42:07;97403.40;;;3.32;100.00
64628;BME280;68467;50.960;0.314;2024-03-02T04:44:34;97394.49;;;3.01;100.00
64628;BME280;68467;50.960;0.314;2024-03-02T04:47:01;97389.94;;;3.29;100.00
64628;BME280;68467;50.960;0.314;2024-03-02T04:49:28;97376.03;;;3.11;100.00
64628;BME280;68467;50.960;0.314;2024-03-02T04:51:56;97378.81;;;3.12;100.00
64628;BME280;68467;50.960;0.314;2024-03-02T04:54:23;97374.88;;;3.27;100.00
64628;BME280;68467;50.960;0.314;2024-03-02T04:56:50;97372.66;;;3.05;100.00
64628;BME280;68467;50.960;0.314;2024-03-02T04:59:18;97380.31;;;3.33;100.00
64628;BME280;68467;50.960;0.314;2024-03-02T05:01:46;97377.54;;;3.35;100.00
64628;BME280;68467;50.960;0.314;2024-03-02T05:04:13;97343.57;;;3.29;100.00
64628;BME280;68467;50.960;0.314;2024-03-02T05:06:41;97372.63;;;3.48;100.00
64628;BME280;68467;50.960;0.314;2024-03-02T05:09:08;97375.26;;;3.46;100.00
64628;BME280;68467;50.960;0.314;2024-03-02T05:11:35;97360.99;;;3.53;100.00
64628;BME280;68467;50.960;0.314;2024-03-02T05:14:03;97347.63;;;3.37;100.00
64628;BME280;68467;50.960;0.314;2024-03-02T05:16:33;97361.66;;;3.23;100.00
64628;BME280;68467;50.960;0.314;2024-03-02T05:19:00;97354.69;;;3.40;100.00
64628;BME280;68467;50.960;0.314;2024-03-02T05:21:27;97367.78;;;3.39;100.00
64628;BME280;68467;50.960;0.314;2024-03-02T05:23:55;97363.90;;;3.60;100.00
64628;BME280;68467;50.960;0.314;2024-03-02T05:26:22;97352.22;;;3.19;100.00
64628;BME280;68467;50.960;0.314;2024-03-02T05:28:49;97355.52;;;3.67;100.00
64628;BME280;68467;50.960;0.314;2024-03-02T05:31:16;97346.76;;;3.54;100.00
64628;BME280;68467;50.960;0.314;2024-03-02T05:33:43;97355.27;;;3.66;100.00
64628;BME280;68467;50.960;0.314;2024-03-02T05:36:11;97359.10;;;3.76;100.00
64628;BME280;68467;50.960;0.314;2024-03-02T05:38:39;97349.58;;;3.67;100.00
64628;BME280;68467;50.960;0.314;2024-03-02T05:41:06;97356.80;;;3.62;100.00
64628;BME280;68467;50.960;0.314;2024-03-02T05:43:33;97345.21;;;3.53;100.00
64628;BME280;68467;50.960;0.314;2024-03-02T05:46:00;97370.25;;;3.80;100.00
64628;BME280;68467;50.960;0.314;2024-03-02T05:48:29;97339.15;;;3.59;100.00
64628;BME280;68467;50.960;0.314;2024-03-02T05:50:56;97367.13;;;3.71;100.00
64628;BME280;68467;50.960;0.314;2024-03-02T05:53:23;97357.63;;;3.74;100.00
64628;BME280;68467;50.960;0.314;2024-03-02T05:55:50;97351.59;;;3.74;100.00
64628;BME280;68467;50.960;0.314;2024-03-02T05:58:17;97347.40;;;3.71;100.00
64628;BME280;68467;50.960;0.314;2024-03-02T06:00:45;97347.14;;;3.71;100.00
64628;BME280;68467;50.960;0.314;2024-03-02T06:03:12;97332.25;;;3.58;100.00
64628;BME280;68467;50.960;0.314;2024-03-02T06:05:40;97342.17;;;3.52;100.00
64628;BME280;68467;50.960;0.314;2024-03-02T06:08:07;97332.44;;;3.40;100.00
64628;BME280;68467;50.960;0.314;2024-03-02T06:10:34;97350.68;;;3.39;100.00
64628;BME280;68467;50.960;0.314;2024-03-02T06:13:01;97350.75;;;3.28;100.00
64628;BME280;68467;50.960;0.314;2024-03-02T06:15:28;97344.83;;;3.12;100.00
64628;BME280;68467;50.960;0.314;2024-03-02T06:17:55;97337.75;;;3.11;100.00
64628;BME280;68467;50.960;0.314;2024-03-02T06:20:22;97359.56;;;2.91;100.00
64628;BME280;68467;50.960;0.314;2024-03-02T06:22:49;97359.28;;;3.00;100.00
64628;BME280;68467;50.960;0.314;2024-03-02T06:25:17;97346.15;;;2.95;100.00
64628;BME280;68467;50.960;0.314;2024-03-02T06:27:44;97350.25;;;3.31;100.00
64628;BME280;68467;50.960;0.314;2024-03-02T06:30:12;97346.36;;;3.04;100.00
64628;BME280;68467;50.960;0.314;2024-03-02T06:32:40;97348.44;;;3.35;100.00
64628;BME280;68467;50.960;0.314;2024-03-02T06:35:12;97340.36;;;3.10;100.00
64628;BME280;68467;50.960;0.314;2024-03-02T06:37:40;97349.90;;;3.25;100.00
64628;BME280;68467;50.960;0.314;2024-03-02T06:40:08;97329.34;;;3.23;100.00
64628;BME280;68467;50.960;0.314;2024-03-02T06:42:35;97352.53;;;3.27;100.00
64628;BME280;68467;50.960;0.314;2024-03-02T06:45:03;97346.59;;;3.24;100.00
64628;BME280;68467;50.960;0.314;2024-03-02T06:47:31;97332.25;;;3.29;100.00
64628;BME280;68467;50.960;0.314;2024-03-02T06:49:58;97342.28;;;3.24;100.00
64628;BME280;68467;50.960;0.314;2024-03-02T06:52:26;97369.49;;;3.31;100.00
64628;BME280;68467;50.960;0.314;2024-03-02T06:54:53;97346.33;;;2.96;100.00
64628;BME280;68467;50.960;0.314;2024-03-02T06:57:21;97334.91;;;2.98;100.00
64628;BME280;68467;50.960;0.314;2024-03-02T06:59:48;97368.83;;;3.13;100.00
64628;BME280;68467;50.960;0.314;2024-03-02T07:02:15;97349.95;;;3.11;100.00
64628;BME280;68467;50.960;0.314;2024-03-02T07:04:42;97363.53;;;3.20;100.00
64628;BME280;68467;50.960;0.314;2024-03-02T07:07:09;97369.33;;;3.53;100.00
64628;BME280;68467;50.960;0.314;2024-03-02T07:09:36;97368.45;;;3.42;100.00
64628;BME280;68467;50.960;0.314;2024-03-02T07:12:04;97366.30;;;3.40;100.00
64628;BME280;68467;50.960;0.314;2024-03-02T07:14:32;97366.34;;;3.60;100.00
64628;BME280;68467;50.960;0.314;2024-03-02T07:16:59;97363.17;;;3.34;100.00
64628;BME280;68467;50.960;0.314;2024-03-02T07:19:26;97358.17;;;3.35;100.00
64628;BME280;68467;50.960;0.314;2024-03-02T07:21:53;97355.11;;;3.26;100.00
64628;BME280;68467;50.960;0.314;2024-03-02T07:24:21;97368.38;;;3.57;100.00
64628;BME280;68467;50.960;0.314;2024-03-02T07:26:48;97373.84;;;3.47;100.00
64628;BME280;68467;50.960;0.314;2024-03-02T07:29:15;97365.16;;;3.18;100.00
64628;BME280;68467;50.960;0.314;2024-03-02T07:31:42;97386.69;;;3.27;100.00
64628;BME280;68467;50.960;0.314;2024-03-02T07:34:10;97391.17;;;3.33;100.00
64628;BME280;68467;50.960;0.314;2024-03-02T07:36:37;97386.14;;;3.52;100.00
64628;BME280;68467;50.960;0.314;2024-03-02T07:39:05;97354.71;;;3.34;100.00
64628;BME280;68467;50.960;0.314;2024-03-02T07:41:32;97380.31;;;3.35;100.00
64628;BME280;68467;50.960;0.314;2024-03-02T07:44:00;97384.97;;;3.64;100.00
64628;BME280;68467;50.960;0.314;2024-03-02T07:46:27;97398.30;;;3.44;100.00
64628;BME280;68467;50.960;0.314;2024-03-02T07:48:55;97388.09;;;3.75;100.00
64628;BME280;68467;50.960;0.314;2024-03-02T07:51:22;97387.18;;;3.98;100.00
64628;BME280;68467;50.960;0.314;2024-03-02T07:53:49;97411.89;;;4.27;100.00
64628;BME280;68467;50.960;0.314;2024-03-02T07:56:16;97411.40;;;4.29;100.00
64628;BME280;68467;50.960;0.314;2024-03-02T07:58:43;97399.66;;;4.12;100.00
64628;BME280;68467;50.960;0.314;2024-03-02T08:01:10;97404.18;;;4.11;100.00
64628;BME280;68467;50.960;0.314;2024-03-02T08:03:37;97403.34;;;3.78;100.00
64628;BME280;68467;50.960;0.314;2024-03-02T08:06:05;97387.99;;;3.87;100.00
64628;BME280;68467;50.960;0.314;2024-03-02T08:08:32;97401.94;;;3.91;100.00
64628;BME280;68467;50.960;0.314;2024-03-02T08:10:59;97408.80;;;3.71;100.00
64628;BME280;68467;50.960;0.314;2024-03-02T08:13:26;97399.45;;;3.57;100.00
64628;BME280;68467;50.960;0.314;2024-03-02T08:15:53;97402.07;;;3.40;100.00
64628;BME280;68467;50.960;0.314;2024-03-02T08:18:20;97416.43;;;3.88;100.00
64628;BME280;68467;50.960;0.314;2024-03-02T08:20:47;97419.04;;;4.00;100.00
64628;BME280;68467;50.960;0.314;2024-03-02T08:23:14;97417.17;;;3.97;100.00
64628;BME280;68467;50.960;0.314;2024-03-02T08:25:42;97417.27;;;4.07;100.00
64628;BME280;68467;50.960;0.314;2024-03-02T08:28:10;97424.48;;;3.99;100.00
64628;BME280;68467;50.960;0.314;2024-03-02T08:30:37;97404.67;;;3.62;100.00
64628;BME280;68467;50.960;0.314;2024-03-02T08:33:05;97398.65;;;3.35;100.00
64628;BME280;68467;50.960;0.314;2024-03-02T08:35:32;97424.31;;;3.92;100.00
64628;BME280;68467;50.960;0.314;2024-03-02T08:37:59;97432.03;;;3.98;100.00
64628;BME280;68467;50.960;0.314;2024-03-02T08:40:26;97430.02;;;3.79;100.00
64628;BME280;68467;50.960;0.314;2024-03-02T08:42:53;97435.61;;;4.31;100.00
64628;BME280;68467;50.960;0.314;2024-03-02T08:45:21;97421.98;;;3.86;100.00
64628;BME280;68467;50.960;0.314;2024-03-02T08:47:48;97438.45;;;4.17;100.00
64628;BME280;68467;50.960;0.314;2024-03-02T08:50:15;97416.97;;;3.88;100.00
64628;BME280;68467;50.960;0.314;2024-03-02T08:52:43;97446.34;;;4.15;100.00
64628;BME280;68467;50.960;0.314;2024-03-02T08:55:10;97443.97;;;4.58;100.00
64628;BME280;68467;50.960;0.314;2024-03-02T08:57:37;97435.38;;;4.19;100.00
64628;BME280;68467;50.960;0.314;2024-03-02T09:00:06;97447.53;;;4.17;100.00
64628;BME280;68467;50.960;0.314;2024-03-02T09:02:33;97448.75;;;3.86;100.00
64628;BME280;68467;50.960;0.314;2024-03-02T09:05:01;97438.35;;;4.05;100.00
64628;BME280;68467;50.960;0.314;2024-03-02T09:07:28;97433.52;;;3.84;100.00
64628;BME280;68467;50.960;0.314;2024-03-02T09:09:56;97451.13;;;3.90;100.00
64628;BME280;68467;50.960;0.314;2024-03-02T09:12:23;97457.43;;;3.40;100.00
64628;BME280;68467;50.960;0.314;2024-03-02T09:14:50;97451.79;;;3.62;100.00
64628;BME280;68467;50.960;0.314;2024-03-02T09:17:17;97459.08;;;3.36;100.00
64628;BME280;68467;50.960;0.314;2024-03-02T09:19:44;97461.48;;;3.89;100.00
64628;BME280;68467;50.960;0.314;2024-03-02T09:22:12;97460.23;;;3.60;100.00
64628;BME280;68467;50.960;0.314;2024-03-02T09:24:39;97452.04;;;3.67;100.00
64628;BME280;68467;50.960;0.314;2024-03-02T09:27:07;97456.58;;;4.08;100.00
64628;BME280;68467;50.960;0.314;2024-03-02T09:29:34;97454.94;;;4.04;100.00
64628;BME280;68467;50.960;0.314;2024-03-02T09:32:01;97465.11;;;4.02;100.00
64628;BME280;68467;50.960;0.314;2024-03-02T09:34:28;97460.25;;;4.23;100.00
64628;BME280;68467;50.960;0.314;2024-03-02T09:36:56;97463.72;;;3.88;100.00
64628;BME280;68467;50.960;0.314;2024-03-02T09:39:23;97459.96;;;4.09;100.00
64628;BME280;68467;50.960;0.314;2024-03-02T09:41:51;97446.95;;;3.85;100.00
64628;BME280;68467;50.960;0.314;2024-03-02T09:44:18;97428.65;;;3.82;100.00
64628;BME280;68467;50.960;0.314;2024-03-02T09:46:49;97452.09;;;3.67;100.00
64628;BME280;68467;50.960;0.314;2024-03-02T09:49:16;97456.81;;;3.87;100.00
64628;BME280;68467;50.960;0.314;2024-03-02T09:51:46;97447.36;;;4.02;100.00
64628;BME280;68467;50.960;0.314;2024-03-02T09:54:15;97475.04;;;4.09;100.00
64628;BME280;68467;50.960;0.314;2024-03-02T09:56:43;97478.22;;;4.21;100.00
64628;BME280;68467;50.960;0.314;2024-03-02T09:59:11;97472.75;;;4.10;100.00
64628;BME280;68467;50.960;0.314;2024-03-02T10:01:40;97487.01;;;3.77;100.00
64628;BME280;68467;50.960;0.314;2024-03-02T10:04:22;97477.08;;;3.46;100.00
64628;BME280;68467;50.960;0.314;2024-03-02T10:06:49;97463.47;;;3.93;100.00
64628;BME280;68467;50.960;0.314;2024-03-02T10:09:27;97475.06;;;3.68;100.00
64628;BME280;68467;50.960;0.314;2024-03-02T10:12:04;97465.97;;;3.89;100.00
64628;BME280;68467;50.960;0.314;2024-03-02T10:14:31;97493.47;;;4.21;100.00
64628;BME280;68467;50.960;0.314;2024-03-02T10:17:03;97488.48;;;4.53;100.00
64628;BME280;68467;50.960;0.314;2024-03-02T10:19:31;97484.57;;;4.38;100.00
64628;BME280;68467;50.960;0.314;2024-03-02T10:21:59;97491.82;;;4.59;100.00
64628;BME280;68467;50.960;0.314;2024-03-02T10:24:27;97487.37;;;4.60;100.00
64628;BME280;68467;50.960;0.314;2024-03-02T10:26:54;97484.28;;;4.53;100.00
64628;BME280;68467;50.960;0.314;2024-03-02T10:29:21;97490.17;;;4.29;100.00
64628;BME280;68467;50.960;0.314;2024-03-02T10:31:48;97496.45;;;4.73;100.00
64628;BME280;68467;50.960;0.314;2024-03-02T10:34:15;97497.08;;;4.73;100.00
64628;BME280;68467;50.960;0.314;2024-03-02T10:36:44;97480.38;;;4.67;100.00
64628;BME280;68467;50.960;0.314;2024-03-02T10:39:13;97508.79;;;4.46;100.00
64628;BME280;68467;50.960;0.314;2024-03-02T10:41:40;97497.00;;;4.32;100.00
64628;BME280;68467;50.960;0.314;2024-03-02T10:44:09;97496.41;;;4.29;100.00
64628;BME280;68467;50.960;0.314;2024-03-02T10:46:37;97488.75;;;4.47;100.00
64628;BME280;68467;50.960;0.314;2024-03-02T10:49:05;97494.07;;;4.30;100.00
64628;BME280;68467;50.960;0.314;2024-03-02T10:51:33;97502.77;;;4.48;100.00
64628;BME280;68467;50.960;0.314;2024-03-02T10:54:02;97489.62;;;4.20;100.00
64628;BME280;68467;50.960;0.314;2024-03-02T10:56:31;97498.98;;;4.30;100.00
64628;BME280;68467;50.960;0.314;2024-03-02T10:59:03;97495.58;;;4.40;100.00
64628;BME280;68467;50.960;0.314;2024-03-02T11:01:32;97494.05;;;4.66;100.00
64628;BME280;68467;50.960;0.314;2024-03-02T11:04:02;97483.99;;;4.75;100.00
64628;BME280;68467;50.960;0.314;2024-03-02T11:06:32;97475.52;;;4.96;100.00
64628;BME280;68467;50.960;0.314;2024-03-02T11:09:06;97477.47;;;4.83;100.00
64628;BME280;68467;50.960;0.314;2024-03-02T11:11:37;97485.54;;;4.92;100.00
64628;BME280;68467;50.960;0.314;2024-03-02T11:14:07;97493.64;;;5.11;100.00
64628;BME280;68467;50.960;0.314;2024-03-02T11:16:38;97468.50;;;4.80;100.00
64628;BME280;68467;50.960;0.314;2024-03-02T11:19:10;97468.87;;;4.73;100.00
64628;BME280;68467;50.960;0.314;2024-03-02T11:21:38;97489.23;;;4.58;100.00
64628;BME280;68467;50.960;0.314;2024-03-02T11:24:48;97496.20;;;4.86;100.00
64628;BME280;68467;50.960;0.314;2024-03-02T11:27:59;97487.93;;;4.57;100.00
64628;BME280;68467;50.960;0.314;2024-03-02T11:30:58;97498.53;;;4.40;100.00
64628;BME280;68467;50.960;0.314;2024-03-02T11:33:26;97531.80;;;5.18;100.00
64628;BME280;68467;50.960;0.314;2024-03-02T11:35:53;97538.40;;;4.97;100.00
64628;BME280;68467;50.960;0.314;2024-03-02T11:38:22;97532.79;;;4.54;100.00
64628;BME280;68467;50.960;0.314;2024-03-02T11:40:49;97549.36;;;4.86;100.00
64628;BME280;68467;50.960;0.314;2024-03-02T11:43:17;97535.18;;;4.72;100.00
64628;BME280;68467;50.960;0.314;2024-03-02T11:45:44;97539.75;;;4.40;100.00
64628;BME280;68467;50.960;0.314;2024-03-02T11:48:13;97542.50;;;3.50;100.00
64628;BME280;68467;50.960;0.314;2024-03-02T11:50:42;97544.75;;;3.96;100.00
64628;BME280;68467;50.960;0.314;2024-03-02T11:53:10;97548.91;;;3.50;100.00
64628;BME280;68467;50.960;0.314;2024-03-02T11:55:39;97555.05;;;3.85;100.00
64628;BME280;68467;50.960;0.314;2024-03-02T11:58:07;97549.84;;;3.48;100.00
64628;BME280;68467;50.960;0.314;2024-03-02T12:00:34;97540.53;;;3.57;100.00
64628;BME280;68467;50.960;0.314;2024-03-02T12:03:04;97548.35;;;3.52;100.00
64628;BME280;68467;50.960;0.314;2024-03-02T12:05:32;97544.57;;;3.75;100.00
64628;BME280;68467;50.960;0.314;2024-03-02T12:08:01;97545.86;;;4.07;100.00
64628;BME280;68467;50.960;0.314;2024-03-02T12:10:29;97546.49;;;4.24;100.00
64628;BME280;68467;50.960;0.314;2024-03-02T12:12:57;97546.45;;;4.39;100.00
64628;BME280;68467;50.960;0.314;2024-03-02T12:15:27;97545.81;;;4.54;100.00
64628;BME280;68467;50.960;0.314;2024-03-02T12:17:54;97546.53;;;5.02;100.00
64628;BME280;68467;50.960;0.314;2024-03-02T12:20:22;97543.29;;;5.11;100.00
64628;BME280;68467;50.960;0.314;2024-03-02T12:22:52;97535.39;;;5.10;100.00
64628;BME280;68467;50.960;0.314;2024-03-02T12:25:20;97538.17;;;5.08;100.00
64628;BME280;68467;50.960;0.314;2024-03-02T12:27:50;97536.42;;;5.18;100.00
64628;BME280;68467;50.960;0.314;2024-03-02T12:30:18;97541.98;;;4.80;100.00
64628;BME280;68467;50.960;0.314;2024-03-02T12:32:48;97543.33;;;4.73;100.00
64628;BME280;68467;50.960;0.314;2024-03-02T12:35:16;97555.27;;;5.17;100.00
64628;BME280;68467;50.960;0.314;2024-03-02T12:37:46;97573.00;;;4.83;100.00
64628;BME280;68467;50.960;0.314;2024-03-02T12:40:15;97561.94;;;5.14;100.00
64628;BME280;68467;50.960;0.314;2024-03-02T12:42:43;97572.09;;;5.06;100.00
64628;BME280;68467;50.960;0.314;2024-03-02T12:45:11;97576.55;;;5.06;100.00
64628;BME280;68467;50.960;0.314;2024-03-02T12:47:40;97567.05;;;5.60;100.00
64628;BME280;68467;50.960;0.314;2024-03-02T12:50:08;97582.36;;;5.56;100.00
64628;BME280;68467;50.960;0.314;2024-03-02T12:52:37;97572.72;;;5.85;100.00
64628;BME280;68467;50.960;0.314;2024-03-02T12:55:05;97566.69;;;6.42;100.00
64628;BME280;68467;50.960;0.314;2024-03-02T12:57:34;97571.76;;;6.46;100.00
64628;BME280;68467;50.960;0.314;2024-03-02T13:00:02;97569.28;;;6.80;100.00
64628;BME280;68467;50.960;0.314;2024-03-02T13:02:31;97566.59;;;6.49;100.00
64628;BME280;68467;50.960;0.314;2024-03-02T13:04:58;97569.52;;;6.42;100.00